Time;durP1;ratioP1;P1;durP2;ratioP2;P2;SDS_P1;SDS_P2;PMS_P1;PMS_P2;Temp;Humidity;BMP_temperature;BMP_pressure;BME280_temperature;BME280_humidity;BME280_pressure;Samples;Min_cycle;Max_cycle;Signal;HPM_P1;HPM_P2
2022/12/03 00:02:05;;;;;;;11.30;10.27;;;1.60;99.90;;;;;;5063721;28;20240;-67
2022/12/03 00:04:31;;;;;;;12.53;11.23;;;1.70;99.90;;;;;;5069327;28;20819;-67
2022/12/03 00:06:56;;;;;;;13.00;10.07;;;1.70;99.90;;;;;;5069097;28;20178;-67
2022/12/03 00:09:22;;;;;;;10.03;9.10;;;1.70;99.90;;;;;;5071061;28;20174;-67
2022/12/03 00:11:47;;;;;;;10.87;9.83;;;1.70;99.90;;;;;;5051526;28;20214;-67
2022/12/03 00:14:13;;;;;;;12.33;9.60;;;1.80;99.90;;;;;;5065151;28;20543;-67
2022/12/03 00:16:38;;;;;;;11.00;9.83;;;1.70;99.90;;;;;;5070361;28;20255;-67
2022/12/03 00:19:06;;;;;;;11.00;9.93;;;1.70;99.90;;;;;;5065624;28;20190;-67
2022/12/03 00:21:32;;;;;;;10.77;9.67;;;1.70;99.90;;;;;;5062877;28;20233;-67
2022/12/03 00:23:58;;;;;;;14.30;10.63;;;1.60;99.90;;;;;;5071659;28;20238;-67
2022/12/03 00:26:24;;;;;;;11.07;9.23;;;1.60;99.90;;;;;;5058523;28;20603;-67
2022/12/03 00:28:49;;;;;;;10.00;9.20;;;1.50;99.90;;;;;;5051971;28;20236;-67
2022/12/03 00:31:15;;;;;;;12.23;11.00;;;1.50;99.90;;;;;;5061636;28;20690;-67
2022/12/03 00:33:41;;;;;;;12.13;11.00;;;1.50;99.90;;;;;;5069663;28;20292;-67
2022/12/03 00:36:06;;;;;;;10.00;8.97;;;1.50;99.90;;;;;;5070074;28;20454;-67
2022/12/03 00:38:32;;;;;;;10.67;9.87;;;1.50;99.90;;;;;;5069576;28;20593;-67
2022/12/03 00:40:58;;;;;;;9.70;8.80;;;1.50;99.90;;;;;;5054183;28;20202;-67
2022/12/03 00:43:23;;;;;;;13.07;10.20;;;1.60;99.90;;;;;;5050325;28;20207;-67
2022/12/03 00:45:49;;;;;;;9.50;8.50;;;1.60;99.90;;;;;;5051899;28;20186;-67
2022/12/03 00:48:14;;;;;;;10.47;9.43;;;1.70;99.90;;;;;;5054220;28;20182;-67
2022/12/03 00:50:40;;;;;;;11.37;10.40;;;1.80;99.90;;;;;;5051996;28;20195;-67
2022/12/03 00:53:06;;;;;;;11.47;10.37;;;1.80;99.90;;;;;;5059762;28;20204;-67
2022/12/03 00:55:31;;;;;;;9.40;8.70;;;1.90;99.90;;;;;;5066339;28;20674;-67
2022/12/03 00:57:57;;;;;;;10.80;9.83;;;1.90;99.90;;;;;;5051273;28;20171;-67
2022/12/03 01:00:24;;;;;;;10.33;9.47;;;2.10;99.90;;;;;;5063061;28;20179;-67
2022/12/03 01:02:53;;;;;;;10.07;9.20;;;1.90;99.90;;;;;;5063791;28;20174;-67
2022/12/03 01:05:19;;;;;;;10.87;9.73;;;2.00;99.90;;;;;;5052538;28;20186;-67
2022/12/03 01:07:45;;;;;;;9.60;8.80;;;2.00;99.90;;;;;;5065381;28;20190;-67
2022/12/03 01:10:12;;;;;;;9.50;8.70;;;2.00;99.90;;;;;;5068156;28;20295;-67
2022/12/03 01:12:37;;;;;;;10.00;9.30;;;2.10;99.90;;;;;;5051161;28;20207;-67
2022/12/03 01:15:05;;;;;;;11.27;10.37;;;2.10;99.90;;;;;;5052345;28;20548;-67
2022/12/03 01:17:30;;;;;;;10.17;9.23;;;2.10;99.90;;;;;;5051909;28;20293;-67
2022/12/03 01:19:57;;;;;;;11.20;9.63;;;2.20;99.90;;;;;;5054464;28;20254;-67
2022/12/03 01:22:23;;;;;;;10.53;8.77;;;2.20;99.90;;;;;;5071285;28;20194;-67
2022/12/03 01:24:49;;;;;;;9.97;8.97;;;2.20;99.90;;;;;;5051887;28;20574;-67
2022/12/03 01:27:14;;;;;;;9.60;8.70;;;2.30;99.90;;;;;;5052296;28;20186;-67
2022/12/03 01:29:40;;;;;;;9.63;8.67;;;2.30;99.90;;;;;;5055093;28;20224;-67
2022/12/03 01:32:21;;;;;;;8.60;7.73;;;2.30;99.90;;;;;;5070584;28;21006;-67
2022/12/03 01:34:49;;;;;;;9.00;8.30;;;2.30;99.90;;;;;;5069078;28;20759;-67
2022/12/03 01:37:15;;;;;;;9.40;8.40;;;2.30;99.90;;;;;;5060600;28;20183;-67
2022/12/03 01:39:41;;;;;;;9.50;8.63;;;2.30;99.90;;;;;;5064254;28;20178;-67
2022/12/03 01:42:11;;;;;;;13.17;9.33;;;2.40;99.90;;;;;;5060181;28;20241;-67
2022/12/03 01:44:38;;;;;;;9.50;8.63;;;2.40;99.90;;;;;;5053802;28;20201;-67
2022/12/03 01:47:06;;;;;;;10.30;9.37;;;2.40;99.90;;;;;;5054737;28;20731;-67
2022/12/03 01:49:39;;;;;;;9.37;8.57;;;2.50;99.90;;;;;;5051863;28;20187;-67
2022/12/03 01:52:08;;;;;;;9.43;8.80;;;2.50;99.90;;;;;;5054454;28;20198;-67
2022/12/03 01:54:39;;;;;;;10.37;9.33;;;2.50;99.90;;;;;;5069242;28;20178;-67
2022/12/03 01:57:13;;;;;;;9.67;8.73;;;2.50;99.90;;;;;;5058682;28;20171;-67
2022/12/03 01:59:38;;;;;;;11.50;10.37;;;2.60;99.90;;;;;;5057558;28;20174;-67
2022/12/03 02:02:23;;;;;;;9.93;9.03;;;2.60;99.90;;;;;;5074079;28;20561;-67
2022/12/03 02:04:51;;;;;;;9.23;8.47;;;2.60;99.90;;;;;;5069854;28;20261;-67
2022/12/03 02:07:21;;;;;;;9.23;8.60;;;2.60;99.90;;;;;;5054540;28;20257;-67
2022/12/03 02:09:47;;;;;;;9.00;8.13;;;2.70;99.90;;;;;;5057370;28;20202;-67
2022/12/03 02:14:40;;;;;;;9.27;8.63;;;4.40;99.90;;;;;;5053199;28;20631;-65
2022/12/03 02:17:06;;;;;;;10.63;9.57;;;2.70;99.90;;;;;;5054424;28;20171;-65
2022/12/03 02:19:32;;;;;;;10.20;9.40;;;2.70;99.90;;;;;;5053675;28;20667;-65
2022/12/03 02:22:30;;;;;;;8.67;7.97;;;2.20;99.90;;;;;;5053874;28;20315;-65
2022/12/03 02:25:11;;;;;;;9.10;7.87;;;2.70;99.90;;;;;;5053808;28;20190;-65
2022/12/03 02:27:37;;;;;;;9.40;8.60;;;2.70;99.90;;;;;;5053816;28;20174;-65
2022/12/03 02:30:05;;;;;;;8.47;7.70;;;2.70;99.90;;;;;;5053634;28;20268;-65
2022/12/03 02:32:31;;;;;;;8.47;7.77;;;2.70;99.90;;;;;;5053951;28;20758;-65
2022/12/03 02:34:57;;;;;;;10.10;9.27;;;2.70;99.90;;;;;;5053414;28;20274;-65
2022/12/03 02:37:28;;;;;;;9.63;8.80;;;2.70;99.90;;;;;;5053565;28;20179;-65
2022/12/03 02:39:58;;;;;;;8.90;7.90;;;2.70;99.90;;;;;;5052076;28;20594;-65
2022/12/03 02:42:36;;;;;;;9.23;8.40;;;2.70;99.90;;;;;;5053679;28;20286;-65
2022/12/03 02:45:22;;;;;;;8.97;8.07;;;2.70;99.90;;;;;;5051948;28;20182;-65
2022/12/03 02:47:54;;;;;;;9.97;9.03;;;2.70;99.90;;;;;;5052643;28;20181;-65
2022/12/03 02:50:25;;;;;;;8.53;7.93;;;2.70;99.90;;;;;;5053400;28;20174;-65
2022/12/03 02:52:53;;;;;;;9.23;8.53;;;2.60;99.90;;;;;;5053319;28;20242;-65
2022/12/03 02:55:19;;;;;;;9.87;9.07;;;2.60;99.90;;;;;;5053573;28;20547;-65
2022/12/03 02:57:47;;;;;;;10.00;9.10;;;2.60;99.90;;;;;;5053139;28;20185;-65
2022/12/03 03:00:15;;;;;;;9.47;8.70;;;2.60;99.90;;;;;;5053139;28;20254;-65
2022/12/03 03:02:41;;;;;;;9.73;8.90;;;2.60;99.90;;;;;;5052975;28;20201;-65
2022/12/03 03:05:08;;;;;;;8.90;8.30;;;2.60;99.90;;;;;;5053171;28;20266;-65
2022/12/03 03:07:35;;;;;;;9.33;8.53;;;2.60;99.90;;;;;;5053258;28;20233;-65
2022/12/03 03:10:01;;;;;;;9.07;8.37;;;2.60;99.90;;;;;;5052721;28;20183;-65
2022/12/03 03:12:27;;;;;;;8.23;7.63;;;2.60;99.90;;;;;;5053172;28;20202;-70
2022/12/03 03:14:53;;;;;;;8.73;8.13;;;2.60;99.90;;;;;;5057245;28;20202;-70
2022/12/03 03:17:19;;;;;;;9.80;8.80;;;2.60;99.90;;;;;;5057925;28;20175;-71
2022/12/03 03:19:44;;;;;;;8.87;8.27;;;2.60;99.90;;;;;;5057297;28;20179;-69
2022/12/03 03:22:11;;;;;;;8.70;7.90;;;2.60;99.90;;;;;;5057627;28;20240;-69
2022/12/03 03:24:37;;;;;;;8.60;8.00;;;2.60;99.90;;;;;;5057799;28;20179;-71
2022/12/03 03:27:03;;;;;;;8.20;7.70;;;2.60;99.90;;;;;;5057274;28;20186;-71
2022/12/03 03:29:31;;;;;;;9.07;8.37;;;2.60;99.90;;;;;;5057310;28;20553;-71
2022/12/03 03:31:57;;;;;;;9.57;8.87;;;2.60;99.90;;;;;;5056409;28;20234;-70
2022/12/03 03:34:23;;;;;;;10.50;9.57;;;2.60;99.90;;;;;;5057899;28;20181;-71
2022/12/03 03:36:49;;;;;;;11.03;8.53;;;2.60;99.90;;;;;;5055061;28;20175;-71
2022/12/03 03:39:15;;;;;;;8.73;7.93;;;2.60;99.90;;;;;;5057469;28;20179;-70
2022/12/03 03:41:42;;;;;;;9.57;8.60;;;2.70;99.90;;;;;;5055563;28;20198;-70
2022/12/03 03:44:08;;;;;;;9.20;8.50;;;2.70;99.90;;;;;;5057105;28;20171;-71
2022/12/03 03:46:35;;;;;;;9.67;8.77;;;2.60;99.90;;;;;;5057296;28;20170;-69
2022/12/03 03:49:03;;;;;;;9.70;8.70;;;2.60;99.90;;;;;;5057054;28;20167;-70
2022/12/03 03:51:29;;;;;;;9.23;7.93;;;2.60;99.90;;;;;;5055672;28;20205;-71
2022/12/03 03:53:55;;;;;;;10.13;9.43;;;2.60;99.90;;;;;;5056696;28;20175;-70
2022/12/03 03:56:21;;;;;;;9.27;8.67;;;2.60;99.90;;;;;;5058187;28;20181;-71
2022/12/03 03:58:46;;;;;;;9.37;8.43;;;2.60;99.90;;;;;;5057960;28;20187;-70
2022/12/03 04:01:13;;;;;;;9.43;8.50;;;2.60;99.90;;;;;;5057887;28;20233;-70
2022/12/03 04:03:39;;;;;;;8.73;8.03;;;2.50;99.90;;;;;;5057737;28;20266;-71
2022/12/03 04:06:05;;;;;;;9.73;8.90;;;2.50;99.90;;;;;;5057662;28;20217;-71
2022/12/03 04:08:31;;;;;;;10.60;9.47;;;2.50;99.90;;;;;;5056521;28;20175;-68
2022/12/03 04:13:40;;;;;;;9.67;8.87;;;2.50;99.90;;;;;;5056425;28;20256;-68
2022/12/03 04:16:06;;;;;;;8.73;7.90;;;2.40;99.90;;;;;;5057491;28;20175;-71
2022/12/03 04:18:44;;;;;;;10.77;9.27;;;2.40;99.90;;;;;;5058272;28;20171;-70
2022/12/03 04:23:59;;;;;;;10.67;7.67;;;2.40;99.90;;;;;;5057216;28;20194;-70
2022/12/03 04:29:10;;;;;;;9.60;8.80;;;2.50;99.90;;;;;;5043280;28;20186;-69
2022/12/03 04:37:04;;;;;;;10.70;9.70;;;2.50;99.90;;;;;;5057277;28;20197;-69
2022/12/03 04:39:30;;;;;;;12.00;8.57;;;2.50;99.90;;;;;;5057281;28;20590;-70
2022/12/03 04:41:56;;;;;;;10.63;9.73;;;2.50;99.90;;;;;;5057048;28;20221;-71
2022/12/03 04:44:36;;;;;;;10.03;9.13;;;2.50;99.90;;;;;;5055832;28;20182;-71
2022/12/03 04:47:11;;;;;;;9.17;8.27;;;2.50;99.90;;;;;;5055957;28;20206;-69
2022/12/03 04:49:40;;;;;;;14.10;10.40;;;2.50;99.90;;;;;;5057014;28;20239;-72
2022/12/03 04:52:06;;;;;;;8.80;8.03;;;2.50;99.90;;;;;;5057500;28;20592;-70
2022/12/03 04:54:32;;;;;;;11.80;8.17;;;2.50;99.90;;;;;;5057343;28;20249;-68
2022/12/03 04:56:58;;;;;;;10.30;9.30;;;2.50;99.90;;;;;;5057401;28;20173;-66
2022/12/03 04:59:23;;;;;;;10.33;9.17;;;2.50;99.90;;;;;;5057376;28;20652;-66
2022/12/03 05:01:49;;;;;;;8.80;7.90;;;2.50;99.90;;;;;;5051151;28;20293;-65
2022/12/03 05:04:15;;;;;;;9.80;8.80;;;2.50;99.90;;;;;;5051395;28;20229;-65
2022/12/03 05:06:41;;;;;;;9.17;8.40;;;2.50;99.90;;;;;;5051311;28;20527;-65
2022/12/03 05:09:07;;;;;;;9.90;9.00;;;2.60;99.90;;;;;;5051292;28;20179;-65
2022/12/03 05:11:33;;;;;;;12.03;10.93;;;2.60;99.90;;;;;;5049615;28;20202;-65
2022/12/03 05:13:58;;;;;;;11.27;9.33;;;2.50;99.90;;;;;;5051063;28;20381;-65
2022/12/03 05:16:24;;;;;;;13.27;8.50;;;2.50;99.90;;;;;;5051256;28;20186;-65
2022/12/03 05:18:49;;;;;;;10.87;9.77;;;2.50;99.90;;;;;;5051057;28;20236;-65
2022/12/03 05:21:15;;;;;;;11.80;10.57;;;2.50;99.90;;;;;;5050833;28;20206;-65
2022/12/03 05:23:41;;;;;;;12.50;9.77;;;2.50;99.90;;;;;;5051283;28;20190;-65
2022/12/03 05:26:07;;;;;;;10.70;9.60;;;2.50;99.90;;;;;;5054885;28;20175;-65
2022/12/03 05:28:32;;;;;;;11.43;10.23;;;2.50;99.90;;;;;;5055268;28;20186;-65
2022/12/03 05:30:58;;;;;;;10.17;9.27;;;2.50;99.90;;;;;;5054662;28;20659;-65
2022/12/03 05:33:23;;;;;;;10.57;9.57;;;2.50;99.90;;;;;;5054935;28;20671;-65
2022/12/03 05:35:49;;;;;;;9.67;8.67;;;2.50;99.90;;;;;;5054757;28;20182;-65
2022/12/03 05:38:15;;;;;;;15.03;9.77;;;2.50;99.90;;;;;;5054678;28;20182;-65
2022/12/03 05:40:40;;;;;;;12.97;9.50;;;2.30;99.90;;;;;;5053696;28;20214;-65
2022/12/03 05:43:06;;;;;;;14.87;10.60;;;2.40;99.90;;;;;;5055015;28;20244;-65
2022/12/03 05:45:35;;;;;;;9.20;8.27;;;2.50;99.90;;;;;;5054384;28;20182;-65
2022/12/03 05:48:01;;;;;;;8.83;7.97;;;2.50;99.90;;;;;;5054502;28;20193;-65
2022/12/03 05:50:29;;;;;;;9.70;8.83;;;2.50;99.90;;;;;;5054060;28;20190;-65
2022/12/03 05:52:56;;;;;;;11.30;8.67;;;2.50;99.90;;;;;;5054472;28;20561;-65
2022/12/03 05:55:22;;;;;;;9.17;8.20;;;2.40;99.90;;;;;;5054752;28;20273;-65
2022/12/03 05:57:48;;;;;;;9.87;9.00;;;2.40;99.90;;;;;;5039379;28;20621;-65
2022/12/03 06:00:23;;;;;;;9.67;8.97;;;2.40;99.90;;;;;;5047817;28;20261;-65
2022/12/03 06:02:49;;;;;;;9.10;8.40;;;2.40;99.90;;;;;;5054129;28;20202;-65
2022/12/03 06:05:18;;;;;;;10.27;9.27;;;2.40;99.90;;;;;;5054232;28;20175;-65
2022/12/03 06:07:44;;;;;;;11.67;9.10;;;2.40;99.90;;;;;;5054149;28;20694;-65
2022/12/03 06:10:13;;;;;;;11.27;8.03;;;2.40;99.90;;;;;;5052749;28;20270;-65
2022/12/03 06:12:39;;;;;;;8.83;8.03;;;2.40;99.90;;;;;;5054186;28;20558;-65
2022/12/03 06:15:05;;;;;;;14.60;10.63;;;2.30;99.90;;;;;;5054159;28;20194;-65
2022/12/03 06:17:31;;;;;;;9.60;8.57;;;2.40;99.90;;;;;;5049327;28;20646;-65
2022/12/03 06:19:56;;;;;;;10.80;9.20;;;2.40;99.90;;;;;;5053890;28;20182;-65
2022/12/03 06:22:22;;;;;;;9.73;8.83;;;2.40;99.90;;;;;;5054083;28;20257;-65
2022/12/03 06:24:49;;;;;;;10.53;9.50;;;2.40;99.90;;;;;;5054450;28;20656;-65
2022/12/03 06:27:14;;;;;;;8.50;7.97;;;2.30;99.90;;;;;;5052584;28;20547;-65
2022/12/03 06:29:40;;;;;;;10.03;8.97;;;2.30;99.90;;;;;;5053823;28;20183;-65
2022/12/03 06:32:06;;;;;;;10.27;9.27;;;2.30;99.90;;;;;;5051957;28;20214;-65
2022/12/03 06:34:32;;;;;;;9.50;8.73;;;2.30;99.90;;;;;;5053682;28;20202;-65
2022/12/03 06:36:58;;;;;;;8.33;7.60;;;2.30;99.90;;;;;;5052660;28;20237;-65
2022/12/03 06:39:23;;;;;;;17.97;9.20;;;2.30;99.90;;;;;;5052488;28;20228;-65
2022/12/03 06:41:49;;;;;;;10.50;9.37;;;2.30;99.90;;;;;;5053223;28;20202;-65
2022/12/03 06:44:14;;;;;;;12.13;9.87;;;2.30;99.90;;;;;;5053943;28;20588;-65
2022/12/03 06:46:40;;;;;;;10.80;9.17;;;2.30;99.90;;;;;;5053839;28;20190;-65
2022/12/03 06:49:08;;;;;;;9.13;8.40;;;2.30;99.90;;;;;;5053644;28;20239;-65
2022/12/03 06:51:34;;;;;;;14.87;8.90;;;2.30;99.90;;;;;;5053331;28;20202;-65
2022/12/03 06:54:00;;;;;;;12.87;8.63;;;2.30;99.90;;;;;;5053307;28;20662;-65
2022/12/03 06:56:26;;;;;;;10.87;8.87;;;2.30;99.90;;;;;;5053720;28;20178;-65
2022/12/03 06:58:51;;;;;;;9.43;8.50;;;2.30;99.90;;;;;;5053334;28;20190;-66
2022/12/03 07:01:17;;;;;;;13.20;10.00;;;2.40;99.90;;;;;;5053122;28;20226;-66
2022/12/03 07:03:43;;;;;;;10.63;8.33;;;2.40;99.90;;;;;;5053381;28;20652;-65
2022/12/03 07:06:08;;;;;;;11.03;9.17;;;2.40;99.90;;;;;;5051630;28;20187;-65
2022/12/03 07:08:34;;;;;;;12.80;8.50;;;2.40;99.90;;;;;;5053187;28;20190;-65
2022/12/03 07:10:59;;;;;;;9.40;8.60;;;2.40;99.90;;;;;;5052916;28;20206;-65
2022/12/03 07:13:25;;;;;;;11.23;10.23;;;2.40;99.90;;;;;;5052932;28;20675;-65
2022/12/03 07:15:51;;;;;;;11.67;9.50;;;2.40;99.90;;;;;;5052682;28;20604;-65
2022/12/03 07:18:16;;;;;;;10.27;9.47;;;2.40;99.90;;;;;;5051947;28;20181;-65
2022/12/03 07:20:42;;;;;;;10.40;8.93;;;2.40;99.90;;;;;;5052713;28;20189;-65
2022/12/03 07:23:07;;;;;;;9.77;9.03;;;2.40;99.90;;;;;;5052731;28;20197;-65
2022/12/03 07:25:33;;;;;;;10.63;9.00;;;2.40;99.90;;;;;;5053160;28;20639;-65
2022/12/03 07:27:59;;;;;;;12.70;11.17;;;2.40;99.90;;;;;;5052535;28;20179;-65
2022/12/03 07:30:26;;;;;;;8.67;7.87;;;2.40;99.90;;;;;;5047781;28;20198;-66
2022/12/03 07:32:52;;;;;;;10.47;9.53;;;2.40;99.90;;;;;;5052574;28;20273;-66
2022/12/03 07:35:18;;;;;;;15.80;10.63;;;2.40;99.90;;;;;;5052846;28;20342;-65
2022/12/03 07:37:43;;;;;;;12.27;10.37;;;2.40;99.90;;;;;;5052885;28;20228;-65
2022/12/03 07:40:09;;;;;;;14.73;11.40;;;2.40;99.90;;;;;;5052390;28;20288;-65
2022/12/03 07:42:35;;;;;;;12.23;8.57;;;2.40;99.90;;;;;;5052785;28;20723;-65
2022/12/03 07:45:00;;;;;;;16.60;8.73;;;2.40;99.90;;;;;;5051182;28;20270;-65
2022/12/03 07:47:26;;;;;;;9.97;9.17;;;2.40;99.90;;;;;;5052590;28;20244;-65
2022/12/03 07:49:52;;;;;;;15.87;9.30;;;2.40;99.90;;;;;;5052118;28;20496;-66
2022/12/03 07:52:17;;;;;;;9.87;8.90;;;2.40;99.90;;;;;;5050983;28;20217;-66
2022/12/03 07:54:43;;;;;;;10.70;9.73;;;2.40;99.90;;;;;;5052291;28;20258;-65
2022/12/03 07:57:09;;;;;;;13.90;8.77;;;2.40;99.90;;;;;;5052387;28;20309;-66
2022/12/03 07:59:34;;;;;;;11.87;10.67;;;2.40;99.90;;;;;;5051957;28;20191;-66
2022/12/03 08:02:01;;;;;;;11.43;9.00;;;2.40;99.90;;;;;;5050949;28;20190;-66
2022/12/03 08:04:26;;;;;;;9.80;8.03;;;2.50;99.90;;;;;;5052014;28;20174;-66
2022/12/03 08:06:52;;;;;;;9.37;8.47;;;2.50;99.90;;;;;;5052100;28;20520;-66
2022/12/03 08:09:17;;;;;;;10.30;9.53;;;2.40;99.90;;;;;;5050466;28;20182;-65
2022/12/03 08:11:46;;;;;;;10.50;9.67;;;2.40;99.90;;;;;;5051956;28;20201;-65
2022/12/03 08:14:15;;;;;;;10.87;9.53;;;2.40;99.90;;;;;;5093832;22;20318;-65
2022/12/03 08:16:42;;;;;;;10.20;9.30;;;2.40;99.90;;;;;;5112460;28;20587;-65
2022/12/03 08:19:12;;;;;;;9.87;8.53;;;2.40;99.90;;;;;;5088744;28;20618;-66
2022/12/03 08:21:39;;;;;;;8.93;8.03;;;2.40;99.90;;;;;;5092203;28;20166;-66
2022/12/03 08:24:14;;;;;;;11.37;10.33;;;2.40;99.90;;;;;;5091589;28;20193;-65
2022/12/03 08:26:42;;;;;;;15.77;10.00;;;2.50;99.90;;;;;;5091619;28;20177;-65
2022/12/03 08:29:10;;;;;;;11.57;9.57;;;2.50;99.90;;;;;;5093535;28;20203;-66
2022/12/03 08:31:36;;;;;;;9.50;8.77;;;2.60;99.90;;;;;;5091626;28;20223;-65
2022/12/03 08:34:15;;;;;;;16.47;10.67;;;2.60;99.90;;;;;;5091676;28;20196;-65
2022/12/03 08:36:41;;;;;;;10.93;9.83;;;2.60;99.90;;;;;;5091560;28;20767;-65
2022/12/03 08:39:24;;;;;;;9.70;8.57;;;2.70;99.90;;;;;;5091746;28;20169;-65
2022/12/03 08:44:40;;;;;;;10.83;9.20;;;2.70;99.90;;;;;;5090940;28;20238;-65
2022/12/03 08:47:08;;;;;;;13.40;12.00;;;2.70;99.90;;;;;;5091429;28;20170;-65
2022/12/03 08:49:34;;;;;;;10.93;8.27;;;2.70;99.90;;;;;;5091554;28;20173;-65
2022/12/03 08:52:09;;;;;;;11.97;10.87;;;2.80;99.90;;;;;;5091037;28;20205;-65
2022/12/03 08:54:34;;;;;;;13.43;9.83;;;2.80;99.90;;;;;;5073549;28;20241;-65
2022/12/03 08:57:05;;;;;;;9.07;8.37;;;2.80;99.90;;;;;;5090385;28;20174;-65
2022/12/03 08:59:31;;;;;;;12.17;9.30;;;2.70;99.90;;;;;;5088762;28;20173;-65
2022/12/03 09:01:58;;;;;;;12.03;10.83;;;2.70;99.90;;;;;;5091032;28;20261;-65
2022/12/03 09:04:37;;;;;;;11.00;8.80;;;2.70;99.90;;;;;;5091370;28;20193;-65
2022/12/03 09:07:03;;;;;;;13.63;9.33;;;2.70;99.90;;;;;;5091040;28;20219;-65
2022/12/03 09:09:29;;;;;;;10.60;9.13;;;2.70;99.90;;;;;;5073059;28;20201;-65
2022/12/03 09:11:55;;;;;;;12.27;9.60;;;2.70;99.90;;;;;;5090821;28;22627;-65
2022/12/03 09:14:22;;;;;;;14.20;10.57;;;2.70;99.90;;;;;;5091274;28;20296;-66
2022/12/03 09:16:54;;;;;;;9.53;8.70;;;2.70;99.90;;;;;;5091100;28;20222;-65
2022/12/03 09:19:26;;;;;;;9.93;8.93;;;2.70;99.90;;;;;;5073254;28;20170;-65
2022/12/03 09:21:53;;;;;;;12.63;8.97;;;2.80;99.90;;;;;;5091098;28;20542;-65
2022/12/03 09:24:19;;;;;;;10.63;8.97;;;2.80;99.90;;;;;;5091162;28;20189;-65
2022/12/03 09:26:45;;;;;;;10.17;9.10;;;2.80;99.90;;;;;;5091197;28;20177;-65
2022/12/03 09:29:11;;;;;;;10.53;8.27;;;2.90;99.90;;;;;;5091335;28;20252;-65
2022/12/03 09:31:37;;;;;;;9.53;8.63;;;3.00;99.90;;;;;;5090965;28;20169;-65
2022/12/03 09:34:04;;;;;;;11.80;10.80;;;3.10;99.90;;;;;;5091057;28;20225;-65
2022/12/03 09:36:29;;;;;;;12.33;11.27;;;3.10;99.90;;;;;;5091347;28;20178;-65
2022/12/03 09:38:55;;;;;;;12.40;11.33;;;3.20;99.90;;;;;;5091260;28;20165;-65
2022/12/03 09:41:22;;;;;;;12.33;11.13;;;3.30;99.90;;;;;;5090551;28;20181;-65
2022/12/03 09:43:48;;;;;;;16.53;11.73;;;3.30;99.90;;;;;;5090300;28;20221;-65
2022/12/03 09:46:14;;;;;;;12.60;10.83;;;3.40;99.90;;;;;;5073152;28;20268;-65
2022/12/03 09:48:40;;;;;;;14.73;10.27;;;3.40;99.90;;;;;;5091087;28;20257;-65
2022/12/03 09:51:08;;;;;;;11.53;9.97;;;3.50;99.90;;;;;;5072936;28;20647;-65
2022/12/03 09:53:34;;;;;;;11.37;10.30;;;3.50;99.90;;;;;;5091126;28;20573;-65
2022/12/03 09:55:59;;;;;;;11.77;9.43;;;3.30;99.90;;;;;;5090704;28;20185;-66
2022/12/03 09:58:27;;;;;;;13.07;10.57;;;3.60;99.90;;;;;;5072531;28;20184;-65
2022/12/03 10:00:53;;;;;;;9.83;8.93;;;3.60;99.90;;;;;;5088868;28;20660;-65
2022/12/03 10:03:22;;;;;;;10.67;9.57;;;3.60;99.90;;;;;;5091095;28;20201;-65
2022/12/03 10:05:49;;;;;;;11.27;9.70;;;3.60;99.90;;;;;;5090959;28;20173;-65
2022/12/03 10:08:20;;;;;;;10.90;9.80;;;3.60;99.90;;;;;;5091222;28;20174;-65
2022/12/03 10:10:49;;;;;;;11.20;10.30;;;3.60;99.90;;;;;;5090688;28;20231;-65
2022/12/03 10:13:28;;;;;;;13.57;9.70;;;3.50;99.90;;;;;;5076352;28;20575;-65
2022/12/03 10:15:57;;;;;;;11.87;10.80;;;3.50;99.90;;;;;;5094302;28;20563;-65
2022/12/03 10:18:28;;;;;;;12.47;10.07;;;3.50;99.90;;;;;;5094619;28;20592;-65
2022/12/03 10:20:54;;;;;;;10.47;9.47;;;3.50;99.90;;;;;;5094265;28;20185;-65
2022/12/03 10:23:28;;;;;;;10.13;9.37;;;3.40;99.90;;;;;;5094578;28;20197;-65
2022/12/03 10:26:02;;;;;;;12.17;10.83;;;3.40;99.90;;;;;;5094372;28;20208;-65
2022/12/03 10:28:32;;;;;;;14.33;10.77;;;3.40;99.90;;;;;;5076398;28;20204;-65
2022/12/03 10:31:00;;;;;;;11.67;10.43;;;3.30;99.90;;;;;;5075830;28;20553;-65
2022/12/03 10:33:35;;;;;;;11.03;10.13;;;3.30;99.90;;;;;;5094253;28;20209;-65
2022/12/03 10:36:25;;;;;;;12.27;11.07;;;3.40;99.90;;;;;;5094176;28;20165;-65
2022/12/03 10:39:19;;;;;;;12.60;11.20;;;3.40;99.90;;;;;;5084146;28;20247;-65
2022/12/03 10:41:45;;;;;;;11.10;10.00;;;3.40;99.90;;;;;;5076580;28;20181;-65
2022/12/03 10:44:19;;;;;;;13.87;11.20;;;3.50;99.90;;;;;;5094054;28;20705;-65
2022/12/03 10:47:03;;;;;;;11.00;10.00;;;3.50;99.90;;;;;;5093512;28;20173;-65
2022/12/03 10:49:29;;;;;;;11.10;10.10;;;3.60;99.90;;;;;;5093909;28;20165;-65
2022/12/03 10:51:54;;;;;;;11.80;9.97;;;3.50;99.90;;;;;;5075599;28;20273;-65
2022/12/03 10:54:23;;;;;;;11.10;9.77;;;3.60;99.90;;;;;;5093824;28;20613;-65
2022/12/03 10:56:50;;;;;;;9.97;9.13;;;3.60;99.90;;;;;;5093984;28;20172;-66
2022/12/03 10:59:26;;;;;;;10.23;8.87;;;3.70;99.90;;;;;;5093759;28;20173;-66
2022/12/03 11:01:51;;;;;;;10.77;10.00;;;3.70;99.90;;;;;;5093785;28;20214;-66
2022/12/03 11:04:22;;;;;;;9.50;8.77;;;3.80;99.90;;;;;;5093662;28;20662;-66
2022/12/03 11:06:49;;;;;;;10.63;9.77;;;3.70;99.90;;;;;;5093687;28;20193;-66
2022/12/03 11:09:30;;;;;;;9.30;8.70;;;3.80;99.90;;;;;;5093469;28;20173;-66
2022/12/03 11:12:03;;;;;;;12.33;8.30;;;3.90;99.90;;;;;;5093462;28;20222;-66
2022/12/03 11:14:47;;;;;;;11.87;10.90;;;3.90;99.90;;;;;;5092461;28;20266;-66
2022/12/03 11:17:39;;;;;;;9.60;8.80;;;3.90;99.90;;;;;;5075261;28;20591;-66
2022/12/03 11:20:29;;;;;;;10.17;9.00;;;4.00;99.90;;;;;;5093053;28;20248;-66
2022/12/03 11:22:56;;;;;;;10.03;9.03;;;4.00;99.90;;;;;;5035720;28;20686;-66
2022/12/03 11:25:28;;;;;;;9.60;8.73;;;4.10;99.90;;;;;;5093637;28;20173;-65
2022/12/03 11:28:11;;;;;;;9.13;8.33;;;4.10;99.90;;;;;;5093264;28;20181;-65
2022/12/03 11:30:49;;;;;;;9.70;8.13;;;4.10;99.90;;;;;;5093209;28;20583;-65
2022/12/03 11:33:27;;;;;;;10.50;9.40;;;4.10;99.90;;;;;;5074409;28;20293;-66
2022/12/03 11:36:12;;;;;;;11.47;8.73;;;4.10;21.70;;;;;;5093097;28;20170;-66
2022/12/03 11:38:44;;;;;;;9.83;9.03;;;4.10;33.60;;;;;;5093024;28;20647;-66
2022/12/03 11:41:13;;;;;;;8.23;7.47;;;4.10;16.60;;;;;;5092734;28;20165;-66
2022/12/03 11:43:50;;;;;;;10.37;9.30;;;4.10;6.00;;;;;;5074960;28;20204;-66
2022/12/03 11:46:18;;;;;;;8.77;7.83;;;4.20;13.50;;;;;;5074049;28;20657;-66
2022/12/03 11:48:45;;;;;;;8.37;7.57;;;4.30;9.50;;;;;;5093009;28;20173;-65
2022/12/03 11:51:14;;;;;;;9.47;8.53;;;4.20;19.50;;;;;;5092536;28;20173;-65
2022/12/03 11:53:41;;;;;;;9.13;8.33;;;4.30;27.80;;;;;;5074451;28;20256;-65
2022/12/03 11:56:09;;;;;;;8.43;7.80;;;4.30;1.00;;;;;;5092573;28;20256;-66
2022/12/03 11:58:38;;;;;;;10.30;8.50;;;4.20;6.60;;;;;;5093253;28;20177;-65
2022/12/03 12:01:06;;;;;;;10.43;9.23;;;4.20;13.30;;;;;;5092406;28;20169;-65
2022/12/03 12:03:46;;;;;;;10.10;9.20;;;4.20;18.00;;;;;;5092914;28;20561;-65
2022/12/03 12:06:14;;;;;;;12.30;8.07;;;4.20;27.70;;;;;;5074413;28;20177;-65
2022/12/03 12:08:53;;;;;;;10.13;7.70;;;4.30;13.30;;;;;;5092819;28;20706;-65
2022/12/03 12:11:29;;;;;;;8.30;7.60;;;4.30;11.40;;;;;;5092408;28;20252;-65
2022/12/03 12:13:58;;;;;;;9.77;8.93;;;4.30;8.40;;;;;;5073429;28;20308;-65
2022/12/03 12:16:41;;;;;;;10.00;9.00;;;4.30;11.40;;;;;;5092605;28;20169;-65
2022/12/03 12:19:36;;;;;;;9.70;8.60;;;4.30;17.70;;;;;;5073981;28;20177;-65
2022/12/03 12:22:38;;;;;;;10.60;9.40;;;4.20;6.00;;;;;;5092087;28;20634;-65
2022/12/03 12:25:34;;;;;;;9.07;8.30;;;4.20;6.70;;;;;;5009370;28;20185;-65
2022/12/03 12:27:59;;;;;;;10.00;9.07;;;4.10;10.70;;;;;;5092100;28;20259;-65
2022/12/03 12:30:25;;;;;;;10.03;8.50;;;4.10;20.50;;;;;;5091847;28;20253;-65
2022/12/03 12:33:02;;;;;;;12.23;9.63;;;4.10;17.50;;;;;;5091772;28;20213;-65
2022/12/03 12:35:31;;;;;;;10.27;9.47;;;4.00;20.80;;;;;;5091539;28;20177;-65
2022/12/03 12:38:17;;;;;;;8.07;7.60;;;4.00;14.60;;;;;;5091960;28;20178;-66
2022/12/03 12:40:45;;;;;;;9.80;9.00;;;4.00;24.80;;;;;;5091644;28;20622;-65
2022/12/03 12:43:11;;;;;;;14.37;10.33;;;4.10;30.00;;;;;;5091938;28;20681;-66
2022/12/03 12:45:41;;;;;;;9.40;8.50;;;4.00;14.00;;;;;;5091847;28;20174;-66
2022/12/03 12:48:33;;;;;;;10.77;9.63;;;4.00;9.80;;;;;;5091141;28;20180;-65
2022/12/03 12:51:10;;;;;;;8.93;8.03;;;3.90;21.60;;;;;;5091445;28;20268;-65
2022/12/03 12:53:37;;;;;;;10.57;9.47;;;3.90;34.60;;;;;;5091607;28;20216;-65
2022/12/03 12:56:29;;;;;;;10.87;9.90;;;3.90;22.00;;;;;;5016093;28;20200;-65
2022/12/03 12:58:59;;;;;;;11.90;10.70;;;3.90;27.90;;;;;;5091633;28;20531;-65
2022/12/03 13:01:30;;;;;;;10.77;9.80;;;3.90;36.80;;;;;;5091378;28;20169;-66
2022/12/03 13:03:56;;;;;;;10.03;9.07;;;4.00;43.60;;;;;;5091509;28;20189;-65
2022/12/03 13:06:28;;;;;;;10.27;8.77;;;3.90;31.00;;;;;;5091472;28;20232;-65
2022/12/03 13:08:54;;;;;;;10.23;9.10;;;4.00;40.30;;;;;;5091520;28;20165;-66
2022/12/03 13:11:40;;;;;;;9.40;8.53;;;4.00;36.40;;;;;;5091426;28;20178;-65
2022/12/03 13:14:19;;;;;;;10.97;8.93;;;4.00;38.80;;;;;;5090347;28;20287;-65
2022/12/03 13:16:47;;;;;;;10.37;9.20;;;4.10;34.10;;;;;;5091714;28;20169;-66